Terminal Aerodrome Forecast
Issued by NWS Atlanta, GA

Home | Current Version | Previous Version | Text Only | Print | Product List | Glossary On
Versions: 1 2 3 4 5 6 7 8 9 10 11 12 13 14 15 16 17 18 19 20 21 22 23 24 25 26 27 28 29 30 31 32 33 34 35 36 37 38
000
FTUS42 KFFC 251731
TAFATL
TAF
KATL 251731Z 2518/2624 13009KT P6SM VCSH BKN028
     FM252000 13009KT 6SM -SHRA BKN035
      TEMPO 2522/2524 VRB12G18KT 3SM TSRA BR BKN025CB
     FM260100 13007KT P6SM VCSH SCT025 BKN040
     FM260600 13007KT P6SM VCSH OVC018
     FM260800 14007KT P6SM OVC007
     FM261300 15007KT P6SM OVC012
     FM261700 16007KT P6SM -SHRA OVC025
      TEMPO 2620/2624 3SM TSRA BR OVC015CB=

USA.gov is the U.S. government's official web portal to all federal, state and local government web resources and services.